Time;durP1;ratioP1;P1;durP2;ratioP2;P2;SDS_P1;SDS_P2;PMS_P1;PMS_P2;Temp;Humidity;BMP_temperature;BMP_pressure;BME280_temperature;BME280_humidity;BME280_pressure;Samples;Min_cycle;Max_cycle;Signal;HPM_P1;HPM_P2
2023/08/20 00:01:48;;;;;;;5.88;4.30;;;28.70;68.90;;;;;;5027011;28;20030;-56
2023/08/20 00:04:14;;;;;;;8.32;4.25;;;28.70;69.00;;;;;;5025551;28;20505;-56
2023/08/20 00:06:42;;;;;;;5.78;4.00;;;28.60;69.10;;;;;;5026542;28;20033;-56
2023/08/20 00:09:08;;;;;;;6.90;3.85;;;28.60;69.20;;;;;;5025153;28;20034;-56
2023/08/20 00:11:34;;;;;;;7.68;4.10;;;28.60;69.40;;;;;;5026572;28;20034;-56
2023/08/20 00:13:59;;;;;;;9.27;4.05;;;28.60;69.50;;;;;;5025387;28;20102;-56
2023/08/20 00:16:25;;;;;;;7.32;4.30;;;28.50;69.60;;;;;;5026672;28;20431;-56
2023/08/20 00:18:51;;;;;;;6.25;3.53;;;28.50;69.70;;;;;;5026605;28;20022;-56
2023/08/20 00:21:16;;;;;;;5.10;3.50;;;28.50;69.80;;;;;;5026584;28;20030;-56
2023/08/20 00:23:42;;;;;;;8.63;3.70;;;28.40;69.80;;;;;;5026594;28;20094;-56
2023/08/20 00:26:08;;;;;;;5.25;3.67;;;28.40;69.90;;;;;;5026392;28;20082;-56
2023/08/20 00:28:36;;;;;;;7.03;3.83;;;28.40;70.00;;;;;;5026632;28;20053;-56
2023/08/20 00:31:02;;;;;;;4.50;3.88;;;28.40;70.00;;;;;;5026475;28;20473;-56
2023/08/20 00:33:28;;;;;;;5.10;3.95;;;28.30;70.00;;;;;;5026378;28;20087;-56
2023/08/20 00:35:54;;;;;;;5.93;3.90;;;28.30;70.20;;;;;;5026405;28;20030;-56
2023/08/20 00:38:19;;;;;;;7.78;4.00;;;28.30;70.30;;;;;;5026256;28;20102;-56
2023/08/20 00:40:45;;;;;;;7.93;4.43;;;28.20;70.30;;;;;;5026075;28;20526;-56
2023/08/20 00:43:11;;;;;;;6.13;3.65;;;28.20;70.40;;;;;;5026016;28;20033;-56
2023/08/20 00:45:36;;;;;;;3.85;3.30;;;28.20;70.50;;;;;;5024796;28;20021;-56
2023/08/20 00:48:03;;;;;;;5.90;3.90;;;28.20;70.70;;;;;;5024709;28;20064;-56
2023/08/20 00:50:29;;;;;;;5.80;3.80;;;28.10;70.70;;;;;;5024974;28;20088;-57
2023/08/20 00:52:54;;;;;;;6.28;3.80;;;28.10;70.80;;;;;;5025999;28;20053;-56
2023/08/20 00:55:20;;;;;;;6.80;3.75;;;28.10;70.90;;;;;;5025711;28;20049;-56
2023/08/20 00:57:46;;;;;;;5.55;4.13;;;28.00;71.00;;;;;;5024394;28;20379;-56
2023/08/20 01:00:11;;;;;;;5.85;3.42;;;28.00;71.20;;;;;;5025310;28;20089;-56
2023/08/20 01:02:37;;;;;;;8.05;4.20;;;27.90;71.30;;;;;;5026261;28;20029;-56
2023/08/20 01:05:05;;;;;;;7.03;3.97;;;27.90;71.40;;;;;;5027591;28;20030;-56
2023/08/20 01:07:39;;;;;;;8.98;4.15;;;27.90;71.50;;;;;;5025680;28;20037;-55
2023/08/20 01:10:43;;;;;;;4.47;3.80;;;27.90;71.50;;;;;;5024975;28;20034;-56
2023/08/20 01:13:09;;;;;;;7.70;3.45;;;27.80;71.50;;;;;;5026704;28;20057;-56
2023/08/20 01:15:34;;;;;;;4.53;3.60;;;27.80;71.70;;;;;;5024146;28;20033;-56
2023/08/20 01:18:00;;;;;;;5.60;3.50;;;27.80;71.80;;;;;;5025639;28;20034;-56
2023/08/20 01:20:30;;;;;;;4.88;3.65;;;27.70;71.80;;;;;;5025572;28;20114;-56
2023/08/20 01:23:29;;;;;;;5.25;3.70;;;27.70;72.00;;;;;;5024192;28;20030;-56
2023/08/20 01:26:19;;;;;;;4.47;3.90;;;27.70;72.10;;;;;;5025258;28;20087;-56
2023/08/20 01:28:44;;;;;;;6.57;3.60;;;27.60;72.20;;;;;;5025465;28;20064;-56
2023/08/20 01:31:10;;;;;;;7.10;3.80;;;27.60;72.30;;;;;;5023950;28;20053;-56
2023/08/20 01:33:36;;;;;;;5.05;3.80;;;27.60;72.40;;;;;;5023905;28;20065;-56
2023/08/20 01:36:01;;;;;;;5.03;3.70;;;27.60;72.40;;;;;;5023904;28;20030;-56
2023/08/20 01:38:27;;;;;;;6.05;4.30;;;27.60;72.60;;;;;;5025120;28;20092;-56
2023/08/20 01:40:52;;;;;;;6.00;3.85;;;27.60;72.70;;;;;;5023952;28;20113;-56
2023/08/20 01:43:18;;;;;;;10.85;3.88;;;27.50;72.80;;;;;;5024008;28;20368;-56
2023/08/20 01:45:44;;;;;;;6.28;4.03;;;27.50;72.90;;;;;;5025240;28;20082;-56
2023/08/20 01:48:09;;;;;;;7.90;4.07;;;27.40;73.00;;;;;;5024988;28;20034;-56
2023/08/20 01:50:35;;;;;;;5.35;3.90;;;27.40;73.10;;;;;;5025138;28;20068;-56
2023/08/20 01:53:02;;;;;;;4.38;3.25;;;27.40;73.30;;;;;;5024955;28;20026;-56
2023/08/20 01:55:28;;;;;;;6.45;4.10;;;27.40;73.40;;;;;;5024607;28;20052;-56
2023/08/20 01:57:53;;;;;;;6.75;3.60;;;27.40;73.30;;;;;;5025023;28;20511;-56
2023/08/20 02:00:19;;;;;;;6.43;3.80;;;27.30;73.40;;;;;;5023899;28;20041;-56
2023/08/20 02:02:44;;;;;;;6.75;4.20;;;27.30;73.50;;;;;;5025320;28;20022;-56
2023/08/20 02:05:10;;;;;;;7.50;3.65;;;27.30;73.70;;;;;;5025349;28;20068;-56
2023/08/20 02:07:36;;;;;;;4.78;3.30;;;27.30;73.80;;;;;;5023918;28;20045;-56
2023/08/20 02:10:02;;;;;;;6.50;3.78;;;27.30;73.80;;;;;;5026401;28;20108;-56
2023/08/20 02:12:27;;;;;;;6.47;3.75;;;27.20;73.80;;;;;;5025632;28;20061;-56
2023/08/20 02:14:53;;;;;;;4.50;3.33;;;27.20;74.00;;;;;;5023514;28;20045;-56
2023/08/20 02:17:19;;;;;;;6.47;3.63;;;27.20;74.00;;;;;;5024814;28;20081;-56
2023/08/20 02:19:44;;;;;;;13.10;4.05;;;27.20;74.20;;;;;;5024680;28;20030;-56
2023/08/20 02:22:10;;;;;;;4.82;3.78;;;27.20;74.20;;;;;;5025311;28;20026;-56
2023/08/20 02:24:35;;;;;;;5.20;3.65;;;27.10;74.30;;;;;;5027307;28;20089;-56
2023/08/20 02:27:01;;;;;;;6.32;3.50;;;27.10;74.40;;;;;;5029035;28;20026;-56
2023/08/20 02:29:26;;;;;;;6.78;3.83;;;27.00;74.50;;;;;;5028650;28;20540;-56
2023/08/20 02:31:52;;;;;;;6.70;3.38;;;27.00;74.50;;;;;;5028770;28;20034;-55
2023/08/20 02:34:17;;;;;;;6.53;3.63;;;27.00;74.70;;;;;;5028747;28;20386;-56
2023/08/20 02:36:43;;;;;;;4.88;3.70;;;27.00;74.80;;;;;;5028613;28;20107;-56
2023/08/20 02:39:08;;;;;;;6.80;3.70;;;27.00;74.80;;;;;;5028274;28;20478;-56
2023/08/20 02:41:37;;;;;;;4.13;3.67;;;26.90;74.90;;;;;;5028297;28;20021;-56
2023/08/20 02:44:03;;;;;;;6.45;3.65;;;26.90;74.90;;;;;;5026862;28;20029;-56
2023/08/20 02:46:29;;;;;;;5.75;4.00;;;26.90;75.00;;;;;;5027059;28;20030;-56
2023/08/20 02:48:55;;;;;;;6.85;4.00;;;26.90;75.20;;;;;;5028336;28;20026;-56
2023/08/20 02:51:20;;;;;;;7.93;3.47;;;26.80;75.20;;;;;;5026764;28;20061;-56
2023/08/20 02:53:46;;;;;;;3.72;3.25;;;26.80;75.30;;;;;;5026716;28;20045;-56
2023/08/20 02:56:11;;;;;;;4.53;3.33;;;26.80;75.40;;;;;;5028187;28;20132;-56
2023/08/20 02:58:37;;;;;;;5.20;3.53;;;26.80;75.50;;;;;;5027812;28;20048;-56
2023/08/20 03:01:02;;;;;;;7.22;4.03;;;26.70;75.50;;;;;;5028053;28;20025;-56
2023/08/20 03:03:28;;;;;;;5.40;4.10;;;26.70;75.70;;;;;;5026565;28;20022;-56
2023/08/20 03:05:53;;;;;;;4.03;3.53;;;26.70;75.90;;;;;;5026518;28;20446;-56
2023/08/20 03:08:19;;;;;;;4.18;3.35;;;26.70;76.00;;;;;;5027762;28;20044;-56
2023/08/20 03:10:44;;;;;;;5.55;4.18;;;26.60;76.00;;;;;;5027898;28;20026;-56
2023/08/20 03:13:10;;;;;;;4.88;3.60;;;26.60;76.10;;;;;;5027806;28;20025;-56
2023/08/20 03:15:36;;;;;;;4.60;3.53;;;26.60;76.20;;;;;;5027825;28;20037;-56
2023/08/20 03:18:01;;;;;;;6.95;3.60;;;26.60;76.30;;;;;;5027539;28;20022;-56
2023/08/20 03:20:28;;;;;;;6.05;4.10;;;26.60;76.30;;;;;;5026430;28;20125;-56
2023/08/20 03:22:53;;;;;;;6.07;3.53;;;26.50;76.30;;;;;;5027636;28;20034;-56
2023/08/20 03:25:19;;;;;;;4.80;3.75;;;26.50;76.40;;;;;;5026166;28;20030;-56
2023/08/20 03:27:45;;;;;;;4.57;3.95;;;26.50;76.50;;;;;;5027567;28;20172;-56
2023/08/20 03:30:10;;;;;;;5.72;4.30;;;26.50;76.60;;;;;;5027461;28;20030;-56
2023/08/20 03:32:36;;;;;;;8.10;3.72;;;26.40;76.70;;;;;;5027231;28;20367;-56
2023/08/20 03:35:02;;;;;;;3.85;3.45;;;26.40;76.80;;;;;;5027076;28;20029;-56
2023/08/20 03:37:28;;;;;;;6.95;3.58;;;26.40;76.80;;;;;;5027460;28;20037;-56
2023/08/20 03:39:53;;;;;;;8.02;4.35;;;26.40;77.00;;;;;;5027432;28;20033;-56
2023/08/20 03:42:19;;;;;;;4.80;3.67;;;26.40;77.10;;;;;;5027333;28;20530;-56
2023/08/20 03:44:45;;;;;;;5.38;3.78;;;26.40;77.10;;;;;;5027256;28;20094;-56
2023/08/20 03:47:10;;;;;;;5.72;3.95;;;26.30;77.20;;;;;;5026062;28;20048;-55
2023/08/20 03:49:36;;;;;;;5.57;3.80;;;26.30;77.30;;;;;;5027210;28;20060;-56
2023/08/20 03:52:02;;;;;;;4.72;3.97;;;26.30;77.30;;;;;;5027236;28;20569;-56
2023/08/20 03:54:29;;;;;;;6.18;4.40;;;26.30;77.50;;;;;;5027111;28;20033;-56
2023/08/20 03:56:54;;;;;;;6.22;3.67;;;26.20;77.50;;;;;;5027035;28;20062;-56
2023/08/20 03:59:20;;;;;;;5.80;4.07;;;26.20;77.50;;;;;;5026699;28;20087;-55
2023/08/20 04:01:46;;;;;;;6.97;3.90;;;26.20;77.60;;;;;;5026884;28;20030;-56
2023/08/20 04:04:11;;;;;;;5.57;3.85;;;26.20;77.70;;;;;;5026691;28;20045;-56
2023/08/20 04:06:37;;;;;;;7.57;4.43;;;26.20;77.80;;;;;;5026675;28;20097;-56
2023/08/20 04:09:03;;;;;;;9.02;4.22;;;26.20;77.80;;;;;;5026769;28;20034;-56
2023/08/20 04:11:28;;;;;;;5.72;3.95;;;26.20;77.90;;;;;;5026729;28;20030;-56
2023/08/20 04:13:54;;;;;;;6.20;3.90;;;26.10;77.90;;;;;;5026601;28;20048;-56
2023/08/20 04:16:19;;;;;;;5.82;4.00;;;26.10;78.00;;;;;;5026716;28;20040;-56
2023/08/20 04:18:45;;;;;;;4.57;3.60;;;26.10;78.00;;;;;;5026558;28;20040;-56
2023/08/20 04:21:11;;;;;;;5.38;4.18;;;26.10;78.10;;;;;;5026612;28;20083;-56
2023/08/20 04:23:36;;;;;;;7.60;4.15;;;26.00;78.10;;;;;;5025044;28;20057;-56
2023/08/20 04:26:02;;;;;;;4.70;3.85;;;26.00;78.20;;;;;;5041634;28;20458;-56
2023/08/20 04:28:28;;;;;;;5.95;3.45;;;26.00;78.40;;;;;;5026505;28;20041;-55
2023/08/20 04:30:57;;;;;;;5.07;4.10;;;26.00;78.40;;;;;;5025150;28;20108;-56
2023/08/20 04:33:23;;;;;;;6.30;3.90;;;26.00;78.50;;;;;;5026449;28;20473;-56
2023/08/20 04:35:50;;;;;;;6.07;4.13;;;25.90;78.60;;;;;;5026319;28;20060;-56
2023/08/20 04:38:16;;;;;;;8.63;4.15;;;25.90;78.80;;;;;;5025890;28;20096;-56
2023/08/20 04:40:41;;;;;;;4.85;4.35;;;25.90;78.90;;;;;;5026297;28;20026;-56
2023/08/20 04:43:07;;;;;;;6.03;4.28;;;25.80;78.90;;;;;;5026023;28;20030;-56
2023/08/20 04:45:32;;;;;;;5.32;3.83;;;25.80;78.90;;;;;;5025559;28;20386;-56
2023/08/20 04:47:59;;;;;;;7.30;3.95;;;25.80;78.90;;;;;;5026211;28;20049;-56
2023/08/20 04:50:24;;;;;;;6.28;3.85;;;25.80;79.00;;;;;;5026140;28;20099;-56
2023/08/20 04:52:50;;;;;;;7.32;4.15;;;25.80;79.10;;;;;;5026026;28;20511;-55
2023/08/20 04:55:15;;;;;;;7.38;3.70;;;25.80;79.20;;;;;;5025926;28;20033;-56
2023/08/20 04:57:41;;;;;;;5.60;4.40;;;25.80;79.30;;;;;;5025745;28;20038;-56
2023/08/20 05:00:07;;;;;;;5.95;3.80;;;25.70;79.40;;;;;;5025975;28;20057;-56
2023/08/20 05:02:33;;;;;;;4.85;4.28;;;25.70;79.40;;;;;;5025811;28;20105;-56
2023/08/20 05:04:58;;;;;;;7.43;4.10;;;25.70;79.50;;;;;;5025650;28;20022;-56
2023/08/20 05:07:24;;;;;;;5.22;4.00;;;25.70;79.60;;;;;;5024213;28;20026;-56
2023/08/20 05:09:50;;;;;;;7.93;4.32;;;25.70;79.70;;;;;;5025621;28;20078;-56
2023/08/20 05:12:15;;;;;;;4.65;3.90;;;25.70;79.90;;;;;;5025524;28;20493;-56
2023/08/20 05:14:41;;;;;;;6.22;3.97;;;25.60;79.80;;;;;;5025607;28;20041;-56
2023/08/20 05:17:06;;;;;;;6.22;3.88;;;25.60;79.80;;;;;;5025502;28;20026;-56
2023/08/20 05:19:32;;;;;;;5.15;3.95;;;25.60;79.90;;;;;;5023851;28;20038;-56
2023/08/20 05:21:58;;;;;;;9.80;4.38;;;25.60;80.00;;;;;;5025465;28;20036;-56
2023/08/20 05:24:25;;;;;;;5.45;4.32;;;25.60;80.10;;;;;;5023999;28;20030;-56
2023/08/20 05:27:09;;;;;;;7.10;4.20;;;25.60;80.10;;;;;;5025289;28;20025;-56
2023/08/20 05:29:35;;;;;;;8.27;4.38;;;25.60;80.10;;;;;;5025456;28;20038;-56
2023/08/20 05:32:00;;;;;;;5.25;4.35;;;25.60;80.20;;;;;;5026026;28;20033;-56
2023/08/20 05:34:26;;;;;;;6.40;4.00;;;25.60;80.30;;;;;;5024747;28;20458;-55
2023/08/20 05:36:51;;;;;;;6.72;4.20;;;25.60;80.20;;;;;;5025793;28;20029;-56
2023/08/20 05:39:17;;;;;;;8.05;4.20;;;25.60;80.30;;;;;;5025258;28;20072;-55
2023/08/20 05:41:42;;;;;;;6.63;4.35;;;25.60;80.40;;;;;;5025178;28;20034;-55
2023/08/20 05:44:09;;;;;;;7.40;4.20;;;25.60;80.60;;;;;;5024966;28;20038;-56
2023/08/20 05:46:35;;;;;;;5.40;3.90;;;25.60;80.50;;;;;;5025180;28;20116;-56
2023/08/20 05:49:00;;;;;;;4.60;4.05;;;25.60;80.60;;;;;;5024957;28;20398;-56
2023/08/20 05:51:26;;;;;;;6.95;4.45;;;25.50;80.60;;;;;;5023695;28;20030;-56
2023/08/20 05:53:52;;;;;;;6.60;4.38;;;25.50;80.70;;;;;;5024907;28;20029;-56
2023/08/20 05:56:17;;;;;;;7.88;4.03;;;25.60;80.80;;;;;;5023603;28;20026;-56
2023/08/20 05:58:43;;;;;;;8.43;4.45;;;25.50;80.80;;;;;;5023458;28;20116;-56
2023/08/20 06:01:08;;;;;;;6.82;4.00;;;25.50;80.90;;;;;;5025089;28;20021;-56
2023/08/20 06:03:34;;;;;;;6.40;4.20;;;25.50;81.10;;;;;;5024848;28;20066;-56
2023/08/20 06:05:59;;;;;;;8.15;4.45;;;25.50;81.20;;;;;;5025131;28;20026;-56
2023/08/20 06:08:25;;;;;;;6.20;4.03;;;25.50;82.00;;;;;;5024574;28;20430;-56
2023/08/20 06:10:51;;;;;;;7.97;4.70;;;25.50;81.50;;;;;;5024920;28;20390;-56
2023/08/20 06:13:16;;;;;;;7.22;4.57;;;25.50;82.00;;;;;;5024748;28;20135;-56
2023/08/20 06:15:42;;;;;;;4.55;4.15;;;25.50;81.70;;;;;;5024922;28;20052;-56
2023/08/20 06:18:07;;;;;;;6.50;4.75;;;25.50;81.60;;;;;;5024677;28;20129;-56
2023/08/20 06:20:33;;;;;;;8.63;4.13;;;25.50;81.60;;;;;;5024796;28;20026;-56
2023/08/20 06:22:58;;;;;;;7.88;4.28;;;25.50;81.70;;;;;;5024910;28;20022;-56
2023/08/20 06:25:24;;;;;;;6.25;4.47;;;25.50;81.70;;;;;;5024630;28;20376;-56
2023/08/20 06:27:49;;;;;;;6.80;4.28;;;25.50;81.70;;;;;;5024537;28;20030;-56
2023/08/20 06:30:15;;;;;;;5.80;4.43;;;25.50;81.60;;;;;;5024579;28;20033;-56
2023/08/20 06:32:41;;;;;;;5.72;4.35;;;25.50;81.50;;;;;;5024525;28;20041;-56
2023/08/20 06:35:09;;;;;;;5.32;4.18;;;25.50;81.60;;;;;;5023182;28;20033;-56
2023/08/20 06:37:34;;;;;;;6.50;4.20;;;25.50;81.60;;;;;;5024622;28;20026;-56
2023/08/20 06:40:00;;;;;;;6.35;4.65;;;25.50;81.50;;;;;;5024419;28;20049;-56
2023/08/20 06:42:25;;;;;;;5.63;4.25;;;25.50;81.70;;;;;;5024429;28;20090;-56
2023/08/20 06:44:51;;;;;;;8.38;4.57;;;25.50;81.70;;;;;;5015183;28;20026;-56
2023/08/20 06:47:16;;;;;;;5.03;4.18;;;25.50;81.80;;;;;;5013641;28;20049;-56
2023/08/20 06:49:42;;;;;;;14.13;4.60;;;25.60;82.10;;;;;;5012243;28;20037;-56
2023/08/20 06:52:07;;;;;;;6.78;4.30;;;25.50;81.90;;;;;;5015127;28;20062;-56
2023/08/20 06:54:33;;;;;;;11.52;4.28;;;25.50;81.90;;;;;;5017821;28;20090;-56
2023/08/20 06:56:59;;;;;;;9.55;5.13;;;25.50;81.90;;;;;;5019288;28;20152;-56
2023/08/20 06:59:24;;;;;;;7.70;4.65;;;25.50;82.20;;;;;;5020994;28;20042;-56
2023/08/20 07:01:50;;;;;;;9.45;4.63;;;25.50;82.20;;;;;;5014598;28;20022;-55
2023/08/20 07:04:15;;;;;;;8.93;5.03;;;25.50;82.50;;;;;;5019412;28;20034;-56
2023/08/20 07:06:41;;;;;;;5.75;4.85;;;25.50;82.60;;;;;;5016030;28;20059;-56
2023/08/20 07:09:07;;;;;;;7.55;4.82;;;25.50;82.80;;;;;;5015749;28;20061;-56
2023/08/20 07:11:32;;;;;;;8.52;4.97;;;25.50;83.00;;;;;;5023430;28;20034;-56
2023/08/20 07:13:58;;;;;;;6.53;4.70;;;25.50;83.30;;;;;;5011150;28;20034;-57
2023/08/20 07:16:23;;;;;;;9.30;4.93;;;25.50;83.30;;;;;;5017806;28;20038;-56
2023/08/20 07:18:49;;;;;;;6.03;4.03;;;25.50;83.20;;;;;;5020159;28;20050;-56
2023/08/20 07:21:14;;;;;;;8.10;4.90;;;25.50;83.10;;;;;;5018706;28;20029;-56
2023/08/20 07:23:40;;;;;;;11.02;5.18;;;25.50;83.10;;;;;;5012306;28;20030;-56
2023/08/20 07:26:06;;;;;;;12.00;5.63;;;25.40;83.60;;;;;;5016533;28;20045;-56
2023/08/20 07:31:16;;;;;;;11.50;4.82;;;25.50;83.60;;;;;;5021738;28;20052;-56
2023/08/20 07:33:45;;;;;;;7.13;5.10;;;25.50;83.80;;;;;;5014219;28;20069;-56
2023/08/20 07:36:10;;;;;;;14.10;6.00;;;25.50;84.50;;;;;;5019534;28;20030;-56
2023/08/20 07:38:40;;;;;;;7.38;5.28;;;25.50;84.60;;;;;;5021089;28;20047;-56
2023/08/20 07:41:06;;;;;;;6.38;5.13;;;25.50;84.60;;;;;;5017142;28;20030;-56
2023/08/20 07:43:32;;;;;;;7.85;5.25;;;25.50;84.70;;;;;;5015738;28;20030;-56
2023/08/20 07:45:57;;;;;;;11.18;5.60;;;25.60;84.90;;;;;;5021379;28;20025;-56
2023/08/20 07:48:23;;;;;;;54.13;9.35;;;25.60;84.90;;;;;;5018726;28;20030;-55
2023/08/20 07:50:48;;;;;;;38.30;8.60;;;25.60;85.10;;;;;;5019969;28;20178;-56
2023/08/20 07:53:14;;;;;;;41.22;8.32;;;25.60;85.20;;;;;;5012617;28;20038;-56
2023/08/20 07:55:40;;;;;;;31.83;8.32;;;25.70;84.90;;;;;;5020891;28;20034;-56
2023/08/20 07:58:05;;;;;;;53.20;10.25;;;25.70;84.90;;;;;;5019571;28;20050;-56
2023/08/20 08:00:31;;;;;;;64.35;10.88;;;25.70;85.10;;;;;;5023351;28;20033;-56
2023/08/20 08:02:56;;;;;;;53.78;10.18;;;25.80;85.20;;;;;;5022057;28;20033;-56
2023/08/20 08:05:22;;;;;;;46.33;10.75;;;25.80;85.30;;;;;;5021610;28;20050;-56
2023/08/20 08:07:47;;;;;;;51.92;10.57;;;25.80;85.40;;;;;;5019032;28;20133;-56
2023/08/20 08:10:13;;;;;;;39.25;9.30;;;25.80;85.70;;;;;;5020494;28;20125;-56
2023/08/20 08:12:38;;;;;;;37.42;9.98;;;25.80;85.10;;;;;;5012674;28;20037;-56
2023/08/20 08:15:04;;;;;;;62.08;12.32;;;25.90;85.20;;;;;;5017144;28;20017;-56
2023/08/20 08:17:30;;;;;;;44.45;10.85;;;25.90;85.60;;;;;;5014491;28;20042;-56
2023/08/20 08:19:56;;;;;;;48.45;10.82;;;25.90;85.40;;;;;;5015431;28;20026;-56
2023/08/20 08:22:22;;;;;;;58.20;11.02;;;25.90;85.60;;;;;;5018021;28;20088;-55
2023/08/20 08:24:47;;;;;;;50.25;9.90;;;25.90;85.40;;;;;;5016615;28;20082;-56
2023/08/20 08:27:13;;;;;;;36.47;9.50;;;25.90;85.30;;;;;;5016253;28;20033;-55
2023/08/20 08:29:38;;;;;;;79.53;14.00;;;26.00;85.10;;;;;;5018599;28;20023;-56
2023/08/20 08:32:04;;;;;;;58.80;12.10;;;26.00;84.90;;;;;;5021307;28;20113;-56
2023/08/20 08:34:30;;;;;;;67.82;13.15;;;26.00;85.30;;;;;;5016401;28;20025;-55
2023/08/20 08:36:55;;;;;;;77.47;14.10;;;26.00;85.80;;;;;;5021396;28;20041;-56
2023/08/20 08:39:21;;;;;;;61.53;12.63;;;26.10;86.20;;;;;;5016922;28;20034;-56
2023/08/20 08:41:49;;;;;;;88.30;13.52;;;26.10;85.90;;;;;;5022933;28;20064;-56
2023/08/20 08:44:14;;;;;;;74.15;12.95;;;26.20;86.50;;;;;;5016435;28;20041;-56
2023/08/20 08:46:40;;;;;;;68.60;13.23;;;26.20;86.00;;;;;;5020540;28;20030;-56
2023/08/20 08:49:07;;;;;;;58.28;12.38;;;26.20;85.80;;;;;;5008898;28;20053;-56
2023/08/20 08:51:33;;;;;;;69.43;12.75;;;26.20;85.30;;;;;;5016324;28;20037;-56
2023/08/20 08:53:58;;;;;;;67.43;14.18;;;26.20;85.30;;;;;;5013637;28;20033;-56
2023/08/20 08:56:24;;;;;;;93.53;15.52;;;26.20;85.70;;;;;;5018829;28;20061;-55
2023/08/20 08:58:49;;;;;;;94.22;15.77;;;26.30;86.40;;;;;;5014811;28;20030;-56
2023/08/20 09:01:15;;;;;;;120.93;18.02;;;26.30;86.40;;;;;;5018466;28;20623;-56
2023/08/20 09:03:40;;;;;;;107.60;16.63;;;26.40;86.40;;;;;;5016764;28;20430;-56
2023/08/20 09:06:09;;;;;;;143.48;19.60;;;26.40;86.50;;;;;;5017421;28;20030;-56
2023/08/20 09:08:34;;;;;;;160.93;21.10;;;26.50;86.40;;;;;;5015730;28;20058;-56
2023/08/20 09:11:01;;;;;;;163.23;24.02;;;26.50;86.40;;;;;;5017546;28;20439;-56
2023/08/20 09:13:33;;;;;;;166.50;23.73;;;26.50;86.50;;;;;;5016667;28;20022;-56
2023/08/20 09:15:59;;;;;;;136.18;21.15;;;26.50;86.10;;;;;;5016282;28;20021;-55
2023/08/20 09:18:24;;;;;;;182.93;23.23;;;26.60;86.00;;;;;;5018405;28;20121;-56
2023/08/20 09:20:50;;;;;;;157.70;22.00;;;26.60;86.20;;;;;;5020842;28;20030;-56
2023/08/20 09:23:16;;;;;;;167.75;23.42;;;26.60;86.00;;;;;;5015932;28;20050;-56
2023/08/20 09:25:45;;;;;;;163.65;22.20;;;26.60;85.70;;;;;;5019960;28;20059;-56
2023/08/20 09:28:10;;;;;;;172.23;22.98;;;26.70;85.50;;;;;;5023407;28;20045;-55
2023/08/20 09:30:36;;;;;;;127.90;22.48;;;26.70;85.40;;;;;;5020688;28;20109;-56
2023/08/20 09:33:10;;;;;;;156.60;20.92;;;26.70;85.00;;;;;;5017372;28;20097;-56
2023/08/20 09:35:36;;;;;;;165.70;23.42;;;26.90;85.00;;;;;;5014701;28;20042;-56
2023/08/20 09:38:03;;;;;;;144.15;22.80;;;26.90;84.70;;;;;;5019989;28;20089;-55
2023/08/20 09:40:29;;;;;;;158.27;23.90;;;27.00;84.40;;;;;;5018307;28;20461;-56
2023/08/20 09:42:54;;;;;;;187.98;26.02;;;27.00;84.50;;;;;;5020035;28;20032;-56
2023/08/20 09:45:20;;;;;;;202.45;26.27;;;27.10;84.50;;;;;;5018614;28;20046;-56
2023/08/20 09:47:46;;;;;;;176.20;26.23;;;27.10;84.30;;;;;;5018736;28;20057;-56
2023/08/20 09:50:12;;;;;;;193.00;26.60;;;27.10;84.10;;;;;;5013854;28;20102;-56
2023/08/20 09:52:40;;;;;;;200.77;27.00;;;27.10;83.90;;;;;;5011364;28;20062;-56
2023/08/20 09:55:12;;;;;;;188.73;26.15;;;27.10;84.60;;;;;;5018172;28;20510;-56
2023/08/20 09:57:40;;;;;;;240.85;30.75;;;27.10;83.60;;;;;;5027685;28;20034;-56
2023/08/20 10:00:10;;;;;;;229.40;32.80;;;27.20;83.70;;;;;;5015633;28;20048;-56
2023/08/20 10:02:37;;;;;;;237.18;29.02;;;27.20;83.70;;;;;;5008051;28;20042;-56
2023/08/20 10:05:05;;;;;;;172.85;25.40;;;27.30;83.50;;;;;;5021542;28;20030;-56
2023/08/20 10:07:31;;;;;;;173.45;24.85;;;27.30;82.90;;;;;;5017980;28;20133;-56
2023/08/20 10:10:00;;;;;;;144.35;22.08;;;27.40;83.10;;;;;;5020223;28;20041;-56
2023/08/20 10:12:28;;;;;;;179.75;23.75;;;27.40;82.70;;;;;;5009921;28;20030;-56
2023/08/20 10:14:56;;;;;;;137.15;19.90;;;27.40;82.30;;;;;;5014166;28;20081;-56
2023/08/20 10:17:23;;;;;;;159.50;21.33;;;27.50;82.60;;;;;;5018793;28;20053;-56
2023/08/20 10:19:48;;;;;;;161.88;22.05;;;27.70;81.70;;;;;;5013833;28;20030;-56
2023/08/20 10:22:14;;;;;;;182.40;24.02;;;27.50;81.60;;;;;;4999441;28;20566;-56
2023/08/20 10:24:52;;;;;;;143.02;21.35;;;27.50;81.80;;;;;;5018657;28;20113;-56
2023/08/20 10:27:28;;;;;;;121.03;20.05;;;27.50;81.90;;;;;;5020752;28;20034;-56
2023/08/20 10:29:54;;;;;;;141.25;18.73;;;27.50;81.80;;;;;;5017380;28;20037;-56
2023/08/20 10:32:20;;;;;;;122.32;19.13;;;27.50;81.60;;;;;;5010767;28;20041;-56
2023/08/20 10:34:51;;;;;;;144.80;21.65;;;27.50;81.50;;;;;;5012962;28;20030;-56
2023/08/20 10:37:30;;;;;;;145.43;24.83;;;27.50;81.50;;;;;;5021269;28;20037;-56
2023/08/20 10:39:56;;;;;;;146.93;20.65;;;27.60;81.40;;;;;;5011721;28;20366;-56
2023/08/20 10:42:23;;;;;;;132.45;18.58;;;27.60;81.60;;;;;;5008600;28;20587;-55
2023/08/20 10:45:11;;;;;;;118.47;18.23;;;27.70;81.40;;;;;;5022646;28;20034;-56
2023/08/20 10:47:37;;;;;;;134.73;19.35;;;27.70;81.00;;;;;;5011519;28;20057;-57
2023/08/20 10:50:03;;;;;;;152.60;21.02;;;27.70;81.00;;;;;;5024633;28;20072;-56
2023/08/20 10:52:28;;;;;;;125.03;19.55;;;27.70;80.90;;;;;;5019621;28;20033;-55
2023/08/20 10:54:55;;;;;;;139.85;20.75;;;27.80;80.90;;;;;;5016309;28;20037;-56
2023/08/20 10:57:21;;;;;;;173.02;23.73;;;27.80;80.80;;;;;;5017437;28;20213;-55
2023/08/20 10:59:57;;;;;;;144.55;22.17;;;27.80;80.60;;;;;;5014239;28;20586;-55
2023/08/20 11:02:23;;;;;;;152.95;23.33;;;27.90;80.50;;;;;;5020063;28;20058;-56
2023/08/20 11:04:48;;;;;;;174.25;24.30;;;27.90;80.30;;;;;;5010103;28;20025;-56
2023/08/20 11:07:14;;;;;;;182.60;24.65;;;27.90;80.40;;;;;;5018755;28;20042;-56
2023/08/20 11:09:40;;;;;;;158.27;24.05;;;28.00;80.20;;;;;;5019343;28;20026;-56
2023/08/20 11:12:06;;;;;;;191.52;26.90;;;28.10;80.00;;;;;;5024949;28;20105;-56
2023/08/20 11:14:33;;;;;;;203.50;27.30;;;28.20;79.90;;;;;;5025141;28;20041;-56
2023/08/20 11:16:58;;;;;;;205.52;29.33;;;28.20;79.80;;;;;;5019359;28;20042;-56
2023/08/20 11:19:24;;;;;;;247.43;31.73;;;28.30;79.80;;;;;;5020573;28;20034;-56
2023/08/20 11:21:50;;;;;;;217.32;29.73;;;28.30;79.90;;;;;;5022940;28;20049;-56
2023/08/20 11:24:16;;;;;;;199.63;28.20;;;28.40;79.90;;;;;;5023070;28;20033;-56
2023/08/20 11:26:42;;;;;;;232.10;28.42;;;28.60;79.70;;;;;;5018923;28;20080;-56
2023/08/20 11:29:08;;;;;;;217.23;26.92;;;28.60;79.30;;;;;;5024493;28;20037;-56
2023/08/20 11:31:37;;;;;;;229.40;32.25;;;28.70;79.40;;;;;;5024380;28;20054;-56
2023/08/20 11:34:03;;;;;;;225.07;29.65;;;28.80;79.40;;;;;;5023723;28;20026;-55
2023/08/20 11:36:28;;;;;;;254.85;32.17;;;28.80;79.30;;;;;;5023197;28;20037;-56
2023/08/20 11:38:54;;;;;;;232.93;30.80;;;28.90;79.30;;;;;;5020668;28;20089;-55
2023/08/20 11:41:20;;;;;;;244.55;30.25;;;29.00;79.10;;;;;;5021049;28;20026;-55
2023/08/20 11:43:47;;;;;;;299.63;34.97;;;29.10;78.90;;;;;;5020945;28;20071;-56
2023/08/20 11:46:15;;;;;;;298.58;35.13;;;29.20;78.90;;;;;;5025306;28;20232;-55
2023/08/20 11:49:06;;;;;;;252.90;34.45;;;29.30;78.90;;;;;;5022347;28;20033;-55
2023/08/20 11:51:39;;;;;;;286.48;38.17;;;29.30;78.50;;;;;;5024843;28;20037;-55
2023/08/20 11:54:07;;;;;;;252.18;30.85;;;29.50;79.10;;;;;;5020889;28;20033;-56
2023/08/20 11:56:33;;;;;;;261.88;34.35;;;29.50;78.30;;;;;;5017996;28;20049;-56
2023/08/20 11:59:00;;;;;;;221.80;30.83;;;29.60;78.50;;;;;;5019568;28;20084;-56
2023/08/20 12:01:26;;;;;;;208.77;27.48;;;29.70;77.70;;;;;;5020337;28;20091;-56
2023/08/20 12:03:51;;;;;;;214.32;28.55;;;29.80;77.70;;;;;;5019943;28;20502;-56
2023/08/20 12:06:19;;;;;;;218.57;29.25;;;29.80;77.30;;;;;;5022742;28;20048;-55
2023/08/20 12:08:44;;;;;;;189.32;25.30;;;29.80;76.90;;;;;;5021395;28;20102;-56
2023/08/20 12:11:10;;;;;;;223.05;27.60;;;30.00;77.00;;;;;;5014562;28;20035;-56
2023/08/20 12:13:36;;;;;;;139.68;21.45;;;30.00;76.30;;;;;;5020769;28;20128;-56
2023/08/20 12:16:01;;;;;;;177.52;24.35;;;30.10;75.90;;;;;;5019950;28;20117;-56
2023/08/20 12:18:27;;;;;;;151.60;22.92;;;30.10;75.70;;;;;;5023791;28;20034;-56
2023/08/20 12:20:52;;;;;;;164.50;21.52;;;30.20;75.50;;;;;;5025246;28;20065;-56
2023/08/20 12:23:18;;;;;;;123.57;19.30;;;30.20;75.20;;;;;;5019405;28;20033;-56
2023/08/20 12:25:43;;;;;;;105.72;17.38;;;30.30;75.30;;;;;;5023936;28;20022;-56
2023/08/20 12:28:09;;;;;;;153.90;20.67;;;30.30;74.60;;;;;;5017906;28;20099;-56
2023/08/20 12:30:35;;;;;;;145.82;19.05;;;30.40;74.30;;;;;;5016845;28;20022;-56
2023/08/20 12:33:00;;;;;;;111.05;15.10;;;30.50;74.20;;;;;;5023610;28;20056;-56
2023/08/20 12:35:26;;;;;;;94.65;17.02;;;30.50;73.60;;;;;;5019551;28;20386;-56